• Join FlightAware (Why Join?)
  • Login
  • US Flag 
03:26PM EST


 

Airport Tracker/Info


-or-


 

Live Flight TrackerFlight Track Log ✈ XOJ552 ✈ 05-Jul-2013 ✈ TXKF / BDA - TNCM / SXM

Flight Track Log - Related Links

Times and Time Zones

All times are in EDT time to prevent confusion due to time zone crossing. See the XOJ552 flight status page for this flight to view local times or setup timezone preferences in your user account.

Time Position Orientation Groundspeed Altitude Reporting Facility
EDT Latitude Longitude Course Direction KTS MPH feet Rate Location/Type
05:11PM 32.3667 -64.6833 192° South 240 276 2,500  Level New York Oceanic (ODAPS)
05:15PM 32.0333 -64.7667 192° South 436 502 18,500  Climbing New York Oceanic (ODAPS)
05:18PM 31.7956 -64.8272 192° South 240 276 2,500 -5,220 Descending FlightAware Transoceanic
05:19PM 31.6767 -64.8574 192° South 240 276 2,500  Level FlightAware Transoceanic
05:20PM 31.5578 -64.8875 192° South 240 276 2,500  Level FlightAware Transoceanic
05:21PM 31.4389 -64.9175 192° South 240 276 2,500 7,980 Level FlightAware Transoceanic
05:22PM 31.2011 -64.9773 192° South 436 502 18,500 7,980 Climbing FlightAware Transoceanic
05:23PM 31.0822 -65.0071 192° South 436 502 18,500 13,320 Level FlightAware Transoceanic
05:23PM 32.0333 -64.7667 192° South 436 502 37,000  Climbing New York Oceanic (ODAPS)
05:24PM 30.9633 -65.0369 192° South 436 502 18,500 1,500 Descending FlightAware Transoceanic
05:24PM 32.0333 -64.7667 192° South 436 502 39,000  Climbing New York Oceanic (ODAPS)
05:25PM 30.8443 -65.0665 192° South 436 502 18,500 -15,600 Descending FlightAware Transoceanic
05:26PM 30.7254 -65.0961 192° South 436 502 18,500 12,240 Level FlightAware Transoceanic
05:26PM 32.0333 -64.7667 192° South 436 502 41,000  Climbing New York Oceanic (ODAPS)
05:27PM 30.6065 -65.1256 192° South 436 502 18,500 -19,320 Descending FlightAware Transoceanic
05:28PM 30.4875 -65.1550 192° South 436 502 18,500 9,240 Level FlightAware Transoceanic
05:29PM 30.3685 -65.1844 192° South 436 502 37,000 9,240 Climbing FlightAware Transoceanic
05:30PM 30.2496 -65.2136 192° South 436 502 37,000 960 Level FlightAware Transoceanic
05:31PM 30.1306 -65.2429 192° South 436 502 39,000 960 Climbing FlightAware Transoceanic
05:32PM 30.0116 -65.2720 192° South 436 502 39,000 960 Level FlightAware Transoceanic
05:33PM 29.8927 -65.3011 192° South 436 502 41,000 960 Climbing FlightAware Transoceanic
05:34PM 29.7737 -65.3301 192° South 436 502 41,000  Level FlightAware Transoceanic
05:35PM 29.6547 -65.3590 192° South 436 502 41,000  Level FlightAware Transoceanic
05:36PM 29.5357 -65.3879 192° South 436 502 41,000  Level FlightAware Transoceanic
05:37PM 29.4167 -65.4167 169° South 436 502 41,000  Level FlightAware Transoceanic
05:38PM 29.2932 -65.3897 169° South 436 502 41,000  Level FlightAware Transoceanic
05:39PM 29.1697 -65.3628 169° South 436 502 41,000  Level FlightAware Transoceanic
05:40PM 29.0462 -65.3359 169° South 436 502 41,000  Level FlightAware Transoceanic
05:41PM 28.9227 -65.3092 169° South 436 502 41,000  Level FlightAware Transoceanic
05:42PM 28.7992 -65.2824 169° South 436 502 41,000  Level FlightAware Transoceanic
05:43PM 28.6757 -65.2558 169° South 436 502 41,000  Level FlightAware Transoceanic
05:44PM 28.5521 -65.2292 169° South 436 502 41,000  Level FlightAware Transoceanic
05:44PM 29.4167 -65.4167 169° South 452 520 41,000  Level New York Oceanic (ODAPS)
05:45PM 28.4286 -65.2027 169° South 436 502 41,000  Level FlightAware Transoceanic
05:46PM 28.3051 -65.1762 169° South 436 502 41,000  Level FlightAware Transoceanic
05:47PM 28.1815 -65.1498 169° South 436 502 41,000  Level FlightAware Transoceanic
05:48PM 28.0580 -65.1235 169° South 436 502 41,000  Level FlightAware Transoceanic
05:49PM 27.9345 -65.0972 169° South 436 502 41,000  Level FlightAware Transoceanic
05:50PM 27.8109 -65.0710 169° South 452 520 41,000  Level FlightAware Transoceanic
05:51PM 27.6874 -65.0448 169° South 452 520 41,000  Level FlightAware Transoceanic
05:52PM 27.5638 -65.0187 169° South 452 520 41,000  Level FlightAware Transoceanic
05:53PM 27.4402 -64.9927 169° South 452 520 41,000  Level FlightAware Transoceanic
05:54PM 27.3167 -64.9667 169° South 452 520 41,000  Level FlightAware Transoceanic
05:55PM 27.1896 -64.9395 169° South 452 520 41,000  Level FlightAware Transoceanic
05:56PM 27.0626 -64.9125 169° South 452 520 41,000  Level FlightAware Transoceanic
05:57PM 26.9356 -64.8854 169° South 452 520 41,000  Level FlightAware Transoceanic
05:57PM 27.3167 -64.9667 169° South 440 506 41,000  Level New York Oceanic (ODAPS)
05:58PM 26.8085 -64.8585 169° South 452 520 41,000  Level FlightAware Transoceanic
05:59PM 26.6814 -64.8316 169° South 452 520 41,000  Level FlightAware Transoceanic
06:00PM 26.5544 -64.8047 169° South 452 520 41,000  Level FlightAware Transoceanic
06:01PM 26.4273 -64.7780 169° South 452 520 41,000  Level FlightAware Transoceanic
06:02PM 26.3003 -64.7513 169° South 452 520 41,000  Level FlightAware Transoceanic
06:03PM 26.1732 -64.7246 169° South 452 520 41,000  Level FlightAware Transoceanic
06:04PM 26.0461 -64.6980 169° South 440 506 41,000  Level FlightAware Transoceanic
06:05PM 25.9190 -64.6715 169° South 440 506 41,000  Level FlightAware Transoceanic
06:06PM 25.7919 -64.6450 169° South 440 506 41,000  Level FlightAware Transoceanic
06:07PM 25.6648 -64.6186 169° South 440 506 41,000  Level FlightAware Transoceanic
06:08PM 25.5377 -64.5922 169° South 440 506 41,000  Level FlightAware Transoceanic
06:09PM 25.4106 -64.5659 169° South 440 506 41,000  Level FlightAware Transoceanic
06:10PM 25.2835 -64.5396 169° South 440 506 41,000  Level FlightAware Transoceanic
06:11PM 25.1564 -64.5134 169° South 440 506 41,000  Level FlightAware Transoceanic
06:12PM 25.0293 -64.4872 169° South 440 506 41,000  Level FlightAware Transoceanic
06:13PM 24.9022 -64.4612 169° South 440 506 41,000  Level FlightAware Transoceanic
06:14PM 24.7751 -64.4351 169° South 440 506 41,000  Level FlightAware Transoceanic
06:15PM 24.6479 -64.4091 169° South 440 506 41,000  Level FlightAware Transoceanic
06:16PM 24.5208 -64.3832 169° South 440 506 41,000  Level FlightAware Transoceanic
06:17PM 24.3937 -64.3573 170° South 440 506 41,000  Level FlightAware Transoceanic
06:18PM 24.2665 -64.3315 170° South 440 506 41,000  Level FlightAware Transoceanic
06:19PM 24.1394 -64.3057 170° South 440 506 41,000  Level FlightAware Transoceanic
06:20PM 24.0122 -64.2800 170° South 440 506 41,000  Level FlightAware Transoceanic
06:21PM 23.8851 -64.2543 170° South 440 506 41,000  Level FlightAware Transoceanic
06:22PM 23.7579 -64.2286 170° South 440 506 41,000  Level FlightAware Transoceanic
06:23PM 23.6307 -64.2031 170° South 440 506 41,000  Level FlightAware Transoceanic
06:24PM 23.5036 -64.1775 170° South 440 506 41,000  Level FlightAware Transoceanic
06:25PM 23.3764 -64.1520 170° South 440 506 41,000  Level FlightAware Transoceanic
06:26PM 23.2492 -64.1266 170° South 440 506 41,000  Level FlightAware Transoceanic
06:27PM 23.1220 -64.1012 170° South 440 506 41,000  Level FlightAware Transoceanic
06:28PM 22.9949 -64.0759 170° South 440 506 41,000  Level FlightAware Transoceanic
06:29PM 22.8677 -64.0506 170° South 440 506 41,000  Level FlightAware Transoceanic
06:30PM 22.7405 -64.0254 170° South 440 506 41,000  Level FlightAware Transoceanic
06:31PM 22.6133 -64.0002 170° South 440 506 41,000  Level FlightAware Transoceanic
06:31PM 22.8333 -64.0333 170° South 448 516 41,000  Level New York Oceanic (ODAPS)
06:32PM 22.4861 -63.9750 170° South 440 506 41,000  Level FlightAware Transoceanic
06:33PM 22.3589 -63.9499 170° South 440 506 41,000  Level FlightAware Transoceanic
06:34PM 22.2316 -63.9249 170° South 440 506 41,000  Level FlightAware Transoceanic
06:35PM 22.1044 -63.8999 170° South 440 506 41,000  Level FlightAware Transoceanic
06:36PM 21.9772 -63.8749 170° South 440 506 41,000  Level FlightAware Transoceanic
06:37PM 21.8500 -63.8500 170° South 440 506 41,000  Level FlightAware Transoceanic
06:38PM 21.7229 -63.8248 170° South 448 516 41,000  Level FlightAware Transoceanic
06:39PM 21.5958 -63.7996 170° South 448 516 41,000  Level FlightAware Transoceanic
06:40PM 21.4687 -63.7744 170° South 448 516 41,000  Level FlightAware Transoceanic
06:40PM 21.4500 -63.7500 170° South 460 529 41,000  Level San Juan Center
06:41PM 21.3415 -63.7493 170° South 448 516 41,000  Level FlightAware Transoceanic
06:41PM 21.3500 -63.7333 171° South 470 541 41,000  Level San Juan Center
06:42PM 21.2144 -63.7243 170° South 448 516 41,000  Level FlightAware Transoceanic
06:42PM 21.1833 -63.7000 169° South 460 529 41,000  Level San Juan Center
06:43PM 21.0873 -63.6993 170° South 448 516 41,000  Level FlightAware Transoceanic
06:43PM 21.0667 -63.6833 172° South 460 529 41,000  Level San Juan Center
06:44PM 20.9601 -63.6743 170° South 448 516 41,000  Level FlightAware Transoceanic
06:44PM 20.9333 -63.6667 173° South 460 529 41,000  Level San Juan Center
06:45PM 20.8330 -63.6494 170° South 448 516 41,000  Level FlightAware Transoceanic
06:45PM 20.8167 -63.6333 165° South 450 518 41,000  Level San Juan Center
06:46PM 20.7058 -63.6245 170° South 448 516 41,000  Level FlightAware Transoceanic
06:46PM 20.6833 -63.6167 173° South 470 541 41,000  Level San Juan Center
06:47PM 20.5667 -63.6000 172° South 450 518 41,000  Level San Juan Center
06:48PM 20.4500 -63.5667 165° South 440 506 41,000  Level San Juan Center
06:49PM 20.3000 -63.5333 168° South 470 541 41,000  Level San Juan Center
06:50PM 20.1833 -63.5000 165° South 460 529 41,000 -60 Level San Juan Center
06:51PM 20.0500 -63.4833 173° South 460 529 40,900 -1,260 Descending San Juan Center
06:52PM 19.9333 -63.4667 172° South 450 518 38,500 -2,400 Descending San Juan Center
06:53PM 19.8000 -63.4333 167° South 450 518 36,100 -2,400 Descending San Juan Center
06:54PM 19.6833 -63.4167 172° South 450 518 33,700 -2,460 Descending San Juan Center
06:55PM 19.5500 -63.4000 173° South 460 529 31,200 -2,400 Descending San Juan Center
06:56PM 19.4167 -63.3667 167° South 480 552 28,900 -2,460 Descending San Juan Center
06:57PM 19.2833 -63.3500 173° South 480 552 26,300 -2,460 Descending San Juan Center
06:58PM 19.1500 -63.3167 167° South 470 541 24,000 -2,340 Descending San Juan Center
06:59PM 19.0333 -63.3000 172° South 450 518 21,700 -2,100 Descending San Juan Center
07:00PM 18.9333 -63.2833 171° South 430 495 19,800 -2,040 Descending San Juan Center
07:01PM 18.8167 -63.2667 172° South 410 472 17,700 -1,740 Descending San Juan Center
07:02PM 18.7167 -63.2500 171° South 370 426 16,300 -1,620 Descending San Juan Center
07:03PM 18.6500 -63.2333 167° South 300 345 14,500 -1,680 Descending San Juan Center
07:04PM 18.5667 -63.2167 169° South 290 334 13,000 -1,500 Descending San Juan Center
07:06PM 18.4512 -63.1878 167° South  Level FlightAware Approximate
07:13PM 18.0410 -63.1089 162° South  Level Estimated
07:14PM 18.0410 -63.1089 162° South  Level Estimated
07:15PM 18.0410 -63.1089 162° South  Level Estimated
07:16PM 18.0410 -63.1089 162° South  Level Estimated
07:17PM 18.0410 -63.1089 162° South  Level Estimated
07:18PM 18.0410 -63.1089 162° South  Level Estimated